Time;durP1;ratioP1;P1;durP2;ratioP2;P2;SDS_P1;SDS_P2;PMS_P1;PMS_P2;Temp;Humidity;BMP_temperature;BMP_pressure;BME280_temperature;BME280_humidity;BME280_pressure;Samples;Min_cycle;Max_cycle;Signal;HPM_P1;HPM_P2
2022/11/09 00:01:30;;;;;;;4.93;2.92;;;12.90;67.60;;;15.92;45.55;97219.34;4908433;29;20060;-54
2022/11/09 00:04:01;;;;;;;3.42;2.60;;;13.00;67.10;;;15.98;45.42;97223.06;4909484;29;20064;-54
2022/11/09 00:06:30;;;;;;;5.57;3.15;;;13.00;66.80;;;16.02;45.32;97216.25;4909350;29;20090;-54
2022/11/09 00:09:01;;;;;;;5.03;2.85;;;13.10;66.40;;;16.08;45.22;97210.06;4909230;29;20250;-54
2022/11/09 00:11:36;;;;;;;5.95;2.60;;;13.10;65.60;;;16.09;44.79;97214.41;4909074;29;20049;-55
2022/11/09 00:14:04;;;;;;;3.95;3.05;;;13.20;65.60;;;16.11;44.97;97214.19;4908431;29;20242;-53
2022/11/09 00:16:33;;;;;;;4.85;2.90;;;13.20;65.70;;;16.13;44.93;97202.22;4908198;29;20057;-54
2022/11/09 00:19:01;;;;;;;5.45;2.53;;;13.20;65.30;;;16.17;44.82;97199.09;4908942;29;20048;-52
2022/11/09 00:21:29;;;;;;;4.18;3.05;;;13.30;65.20;;;16.23;44.82;97209.84;4909332;29;20056;-54
2022/11/09 00:23:57;;;;;;;4.43;2.67;;;13.40;65.00;;;16.28;44.62;97209.22;4908662;29;20045;-53
2022/11/09 00:26:25;;;;;;;4.57;2.72;;;13.40;64.90;;;16.30;44.67;97204.47;4908750;29;20373;-54
2022/11/09 00:28:53;;;;;;;5.45;2.60;;;13.40;64.70;;;16.30;44.53;97205.31;4923463;29;20056;-54
2022/11/09 00:31:23;;;;;;;4.47;2.70;;;13.40;64.80;;;16.34;44.37;97205.69;4908636;29;20053;-53
2022/11/09 00:33:54;;;;;;;5.03;2.90;;;13.40;64.80;;;16.36;44.59;97206.31;4907044;29;20052;-51
2022/11/09 00:36:25;;;;;;;4.03;2.78;;;13.50;64.80;;;16.38;44.44;97208.78;4908682;29;20055;-51
2022/11/09 00:38:59;;;;;;;4.93;3.08;;;13.50;64.60;;;16.43;44.45;97211.69;4908787;29;20044;-52
2022/11/09 00:41:27;;;;;;;4.25;2.28;;;13.50;64.20;;;16.42;44.26;97197.44;4907532;29;20056;-54
2022/11/09 00:43:55;;;;;;;6.93;2.92;;;13.50;64.20;;;16.43;44.48;97201.75;4916802;29;20052;-54
2022/11/09 00:46:24;;;;;;;5.20;2.78;;;13.60;64.10;;;16.44;44.03;97203.44;4927321;29;20056;-53
2022/11/09 00:48:54;;;;;;;3.75;2.90;;;13.50;64.10;;;16.45;44.24;97206.94;4942497;29;20056;-53
2022/11/09 00:51:23;;;;;;;4.22;2.55;;;13.50;64.10;;;16.47;44.09;97204.88;4926132;29;20056;-50
2022/11/09 00:53:53;;;;;;;3.35;2.60;;;13.50;63.80;;;16.48;43.85;97201.97;4927460;29;20056;-52
2022/11/09 00:56:23;;;;;;;3.75;2.25;;;13.60;63.80;;;16.49;44.12;97192.88;4927300;29;20050;-54
2022/11/09 00:58:54;;;;;;;3.63;2.50;;;13.60;63.40;;;16.50;43.91;97194.53;4926266;29;20056;-53
2022/11/09 01:01:22;;;;;;;4.50;2.72;;;13.60;63.30;;;16.51;43.99;97203.41;4925283;29;20066;-52
2022/11/09 01:03:51;;;;;;;5.07;2.70;;;13.60;64.20;;;16.54;43.90;97203.00;4925209;29;20068;-55
2022/11/09 01:06:24;;;;;;;4.60;2.97;;;13.70;63.30;;;16.56;43.91;97202.78;4927292;29;20074;-53
2022/11/09 01:08:52;;;;;;;3.93;3.17;;;13.70;63.10;;;16.57;43.83;97201.75;4909785;29;20330;-54
2022/11/09 01:11:22;;;;;;;3.28;2.55;;;13.70;63.30;;;16.56;43.68;97200.94;4926986;29;20375;-53
2022/11/09 01:13:53;;;;;;;5.32;2.20;;;13.60;63.20;;;16.55;43.69;97201.94;4924532;29;20536;-54
2022/11/09 01:16:22;;;;;;;3.85;2.72;;;13.60;63.30;;;16.54;43.65;97206.50;4927106;29;20056;-54
2022/11/09 01:18:56;;;;;;;4.55;2.70;;;13.60;63.00;;;16.54;43.64;97211.88;4940759;29;20056;-52
2022/11/09 01:21:26;;;;;;;3.67;2.60;;;13.60;62.90;;;16.55;43.88;97210.00;4925873;29;20052;-52
2022/11/09 01:23:57;;;;;;;4.00;2.95;;;13.60;63.20;;;16.54;43.72;97214.56;4909417;29;20060;-53
2022/11/09 01:26:28;;;;;;;5.00;2.47;;;13.70;63.10;;;16.54;43.70;97217.25;4925212;29;20066;-55
2022/11/09 01:28:56;;;;;;;5.50;3.30;;;13.70;63.20;;;16.58;43.49;97227.59;4926870;29;20376;-52
2022/11/09 01:31:25;;;;;;;3.88;2.40;;;13.70;63.00;;;16.54;43.66;97221.81;4925261;29;20342;-53
2022/11/09 01:33:53;;;;;;;3.47;2.20;;;13.70;62.90;;;16.53;43.51;97223.66;4926307;29;20070;-54
2022/11/09 01:36:23;;;;;;;3.85;2.20;;;13.70;62.70;;;16.55;43.55;97226.13;4926967;29;20056;-50
2022/11/09 01:38:51;;;;;;;5.35;2.80;;;13.70;62.50;;;16.56;43.84;97218.91;4926573;29;20052;-52
2022/11/09 01:41:25;;;;;;;2.97;2.45;;;13.70;62.80;;;16.55;43.71;97236.88;4925520;29;20060;-54
2022/11/09 01:44:14;;;;;;;3.65;2.60;;;13.70;62.80;;;16.52;43.64;97222.00;4916752;29;20056;-53
2022/11/09 01:46:42;;;;;;;3.97;2.95;;;13.50;63.30;;;16.47;43.78;97229.03;4907254;29;20044;-54
2022/11/09 01:49:39;;;;;;;5.05;2.75;;;13.50;63.70;;;16.40;43.55;97233.59;4907471;29;20057;-54
2022/11/09 01:52:34;;;;;;;7.65;2.88;;;13.50;63.30;;;16.11;44.31;97236.50;4900988;29;20252;-55
2022/11/09 01:55:22;;;;;;;4.30;2.67;;;13.30;64.00;;;16.21;44.53;97240.66;4890467;29;20117;-51
2022/11/09 01:58:04;;;;;;;3.92;2.35;;;13.30;64.20;;;16.13;44.42;97247.06;4890966;29;20060;-54
2022/11/09 02:00:36;;;;;;;4.03;2.45;;;13.30;65.70;;;16.19;44.50;97250.75;4907253;29;20063;-53
2022/11/09 02:03:36;;;;;;;5.82;3.13;;;13.20;65.10;;;16.26;44.68;97257.78;4906190;29;20055;-52
2022/11/09 02:06:07;;;;;;;7.50;3.92;;;13.30;65.40;;;16.17;45.05;97253.66;4907188;29;20058;-53
2022/11/09 02:08:35;;;;;;;7.18;4.00;;;13.20;66.30;;;16.25;45.08;97258.81;4905624;29;20351;-56
2022/11/09 02:11:11;;;;;;;5.40;2.85;;;13.20;66.60;;;16.29;45.03;97249.31;4906853;29;20054;-54
2022/11/09 02:13:57;;;;;;;5.13;3.55;;;13.20;66.80;;;16.34;44.80;97243.31;4890111;29;20066;-51
2022/11/09 02:16:27;;;;;;;4.15;2.60;;;13.30;67.00;;;16.35;45.29;97250.34;4907146;29;20055;-53
2022/11/09 02:18:59;;;;;;;4.72;2.88;;;13.30;67.00;;;16.33;45.33;97245.16;4905896;29;20359;-53
2022/11/09 02:21:30;;;;;;;5.30;3.03;;;13.20;67.30;;;16.32;45.16;97261.50;4906226;29;20056;-52
2022/11/09 02:23:59;;;;;;;3.30;2.53;;;13.20;67.40;;;16.30;45.42;97258.19;4905462;29;20236;-51
2022/11/09 02:26:44;;;;;;;6.50;3.58;;;13.20;67.80;;;16.31;45.66;97259.84;4920249;29;20056;-54
2022/11/09 02:29:21;;;;;;;4.22;2.53;;;13.20;68.60;;;16.34;45.90;97262.97;4890617;29;20058;-54
2022/11/09 02:32:04;;;;;;;6.53;2.60;;;13.30;68.80;;;16.37;46.16;97252.81;4906334;29;20056;-55
2022/11/09 02:34:32;;;;;;;4.38;2.83;;;13.30;70.00;;;16.38;46.29;97255.31;4905572;29;20075;-56
2022/11/09 02:37:01;;;;;;;5.05;3.00;;;13.30;69.80;;;16.33;47.26;97260.47;4890280;29;20049;-51
2022/11/09 02:39:31;;;;;;;5.15;2.90;;;13.20;72.20;;;16.34;47.24;97256.72;4906933;29;20243;-53
2022/11/09 02:42:05;;;;;;;6.63;4.05;;;13.20;72.70;;;16.30;47.87;97261.72;4905615;29;20052;-53
2022/11/09 02:44:48;;;;;;;4.20;2.72;;;13.20;73.80;;;16.33;48.18;97266.66;4921300;29;20242;-54
2022/11/09 02:47:16;;;;;;;4.22;3.10;;;13.20;75.20;;;16.31;48.83;97266.03;4924650;29;20058;-54
2022/11/09 02:49:46;;;;;;;3.30;2.72;;;13.20;75.90;;;16.31;48.81;97262.53;4924358;29;20055;-54
2022/11/09 02:52:14;;;;;;;5.15;2.72;;;13.10;76.50;;;16.31;49.13;97278.66;4939987;29;20056;-56
2022/11/09 02:54:44;;;;;;;4.70;2.83;;;13.10;77.70;;;16.26;49.61;97273.88;4940091;29;20058;-51
2022/11/09 02:57:13;;;;;;;4.00;3.08;;;13.00;78.60;;;16.18;50.24;97273.28;4924747;29;20052;-53
2022/11/09 02:59:42;;;;;;;6.57;3.17;;;13.00;80.70;;;16.10;50.41;97275.13;4924337;29;20056;-52
2022/11/09 03:02:11;;;;;;;4.45;3.78;;;12.80;82.20;;;16.09;51.15;97283.38;4925523;29;20050;-53
2022/11/09 03:04:39;;;;;;;6.85;2.95;;;12.90;83.10;;;16.06;51.33;97276.56;4925413;29;20368;-53
2022/11/09 03:07:08;;;;;;;4.47;2.97;;;12.80;85.90;;;16.02;51.42;97274.50;4924606;29;20052;-52
2022/11/09 03:09:37;;;;;;;5.18;3.00;;;12.80;86.10;;;16.00;51.86;97280.06;4909031;29;20056;-51
2022/11/09 03:12:27;;;;;;;4.40;3.25;;;12.70;87.20;;;15.98;51.82;97276.78;4924392;29;20048;-50
2022/11/09 03:14:59;;;;;;;5.00;3.42;;;12.70;88.40;;;15.99;51.88;97274.91;4923305;29;20044;-53
2022/11/09 03:17:28;;;;;;;6.25;3.53;;;12.70;89.20;;;15.97;52.17;97269.72;4940042;29;20066;-53
2022/11/09 03:19:56;;;;;;;4.70;3.85;;;12.70;90.50;;;15.93;52.30;97280.03;4939319;29;20251;-55
2022/11/09 03:22:26;;;;;;;5.22;3.13;;;12.70;91.40;;;15.91;52.74;97276.75;4924154;29;20052;-54
2022/11/09 03:24:55;;;;;;;4.85;3.38;;;12.60;92.70;;;15.89;52.55;97276.13;4939570;29;20052;-55
2022/11/09 03:27:23;;;;;;;4.13;3.28;;;12.60;94.10;;;15.88;52.78;97270.97;4925197;29;20368;-55
2022/11/09 03:29:52;;;;;;;5.57;3.47;;;12.60;95.30;;;15.88;52.92;97279.03;4924542;29;20056;-52
2022/11/09 03:32:20;;;;;;;4.55;3.30;;;12.60;95.90;;;15.88;53.18;97277.16;4924400;29;20062;-51
2022/11/09 03:34:50;;;;;;;5.40;3.40;;;12.60;96.60;;;15.87;53.16;97283.56;4924908;29;20063;-53
2022/11/09 03:37:19;;;;;;;5.65;3.58;;;12.60;97.80;;;15.85;53.24;97282.94;4926452;29;20234;-51
2022/11/09 03:39:48;;;;;;;4.35;3.22;;;12.60;98.60;;;15.81;53.35;97281.69;4927102;29;20052;-53
2022/11/09 03:42:16;;;;;;;5.75;4.05;;;12.60;98.70;;;15.81;53.32;97279.00;4943393;28;20239;-53
2022/11/09 03:44:44;;;;;;;5.45;3.80;;;12.60;99.10;;;15.83;53.42;97278.81;4926842;29;20052;-54
2022/11/09 03:47:12;;;;;;;6.85;4.57;;;12.60;99.60;;;15.83;53.81;97276.94;4910406;29;20078;-53
2022/11/09 03:49:40;;;;;;;6.90;4.13;;;12.60;99.80;;;15.84;53.56;97267.03;4909445;29;20052;-56
2022/11/09 03:52:08;;;;;;;6.32;4.90;;;12.60;99.90;;;15.81;53.80;97265.59;4910254;29;20056;-52
2022/11/09 03:54:37;;;;;;;7.47;4.72;;;12.50;99.90;;;15.77;54.01;97268.88;4908792;29;20060;-50
2022/11/09 03:57:05;;;;;;;6.43;4.75;;;12.50;99.90;;;15.75;54.10;97269.09;4909320;29;20051;-50
2022/11/09 03:59:33;;;;;;;7.30;4.30;;;12.50;99.90;;;15.78;54.15;97265.16;4908813;29;20056;-55
2022/11/09 04:02:01;;;;;;;5.78;4.35;;;12.50;99.90;;;15.78;54.30;97260.63;4908203;29;20059;-52
2022/11/09 04:04:29;;;;;;;6.03;5.15;;;12.60;99.90;;;15.79;54.35;97264.97;4908756;29;20340;-50
2022/11/09 04:06:57;;;;;;;7.72;6.85;;;12.60;99.90;;;15.78;54.21;97271.38;4909363;29;20052;-51
2022/11/09 04:09:25;;;;;;;5.75;5.25;;;12.60;99.90;;;15.75;54.40;97277.13;4909391;29;20058;-53
2022/11/09 04:11:53;;;;;;;6.22;4.60;;;12.50;99.90;;;15.74;54.56;97280.84;4908937;29;20056;-53
2022/11/09 04:14:21;;;;;;;5.70;4.55;;;12.50;99.90;;;15.72;54.83;97283.72;4908706;29;20056;-51
2022/11/09 04:16:49;;;;;;;6.40;4.32;;;12.50;99.90;;;15.71;54.31;97284.72;4907918;29;20059;-52
2022/11/09 04:19:18;;;;;;;5.00;4.15;;;12.50;99.90;;;15.63;54.64;97290.28;4909054;29;20373;-52
2022/11/09 04:21:46;;;;;;;5.68;4.13;;;12.50;99.90;;;15.55;54.75;97287.78;4908781;29;20247;-51
2022/11/09 04:24:14;;;;;;;5.47;4.25;;;12.40;99.90;;;15.51;54.93;97291.91;4908715;29;20066;-50
2022/11/09 04:26:42;;;;;;;10.82;4.28;;;12.30;99.90;;;15.45;54.98;97288.19;4909364;29;20081;-53
2022/11/09 04:29:10;;;;;;;4.82;4.03;;;12.30;99.90;;;15.44;55.03;97293.72;4909465;29;20048;-52
2022/11/09 04:31:39;;;;;;;10.60;4.43;;;12.30;99.90;;;15.45;54.97;97298.91;4908867;29;20048;-52
2022/11/09 04:34:07;;;;;;;5.88;3.83;;;12.20;99.90;;;15.42;55.05;97293.94;4906712;29;20371;-50
2022/11/09 04:36:35;;;;;;;5.40;4.05;;;12.20;99.90;;;15.38;55.13;97295.34;4908804;29;20052;-54
2022/11/09 04:39:04;;;;;;;5.22;3.60;;;12.20;99.90;;;15.36;55.28;97295.56;4907476;29;20055;-55
2022/11/09 04:41:32;;;;;;;5.38;3.97;;;12.10;99.90;;;15.36;55.39;97294.72;4908821;29;20062;-53
2022/11/09 04:44:00;;;;;;;4.90;3.45;;;12.10;99.90;;;15.30;55.54;97293.69;4917133;29;20044;-55
2022/11/09 04:46:28;;;;;;;7.07;3.92;;;12.10;99.90;;;15.30;55.80;97290.19;4927567;29;20241;-51
2022/11/09 04:48:56;;;;;;;4.90;4.32;;;12.10;99.90;;;15.30;55.97;97282.13;4926392;29;20082;-56
2022/11/09 04:51:24;;;;;;;5.45;4.03;;;12.00;99.90;;;15.31;56.01;97281.09;4927234;29;20056;-54
2022/11/09 04:53:52;;;;;;;5.82;4.15;;;12.00;99.90;;;15.28;56.08;97279.66;4927547;29;20067;-54
2022/11/09 04:56:21;;;;;;;4.60;3.40;;;12.10;99.90;;;15.30;56.11;97285.63;4925949;29;20062;-52
2022/11/09 04:58:49;;;;;;;4.60;3.67;;;12.10;99.90;;;15.31;56.07;97279.22;4927616;29;20059;-53
2022/11/09 05:01:17;;;;;;;5.18;3.47;;;12.10;99.90;;;15.33;56.19;97266.47;4927549;29;20051;-53
2022/11/09 05:03:45;;;;;;;4.28;2.58;;;12.20;99.90;;;15.31;56.38;97275.72;4926827;29;20059;-50
2022/11/09 05:06:32;;;;;;;4.32;3.53;;;12.30;99.90;;;15.31;56.54;97281.09;4926309;29;20372;-53
2022/11/09 05:09:05;;;;;;;4.13;3.00;;;12.30;99.90;;;15.36;56.10;97279.47;4927384;29;20062;-53
2022/11/09 05:11:35;;;;;;;4.50;3.20;;;12.30;99.90;;;15.38;56.26;97267.72;4926144;29;20066;-56
2022/11/09 05:14:03;;;;;;;6.13;3.42;;;12.40;99.90;;;15.34;56.49;97272.66;4925721;29;20298;-54
2022/11/09 05:16:32;;;;;;;5.07;3.83;;;12.40;99.90;;;15.31;56.47;97263.13;4926749;29;20048;-55
2022/11/09 05:19:00;;;;;;;5.40;4.43;;;12.30;99.90;;;15.34;56.62;97267.28;4927084;29;20055;-58
2022/11/09 05:21:28;;;;;;;6.72;3.88;;;12.30;99.90;;;15.36;56.63;97275.97;4926903;29;20054;-57
2022/11/09 05:23:59;;;;;;;4.65;3.97;;;12.40;99.90;;;15.38;56.55;97268.53;4925483;29;20051;-54
2022/11/09 05:26:36;;;;;;;4.95;4.30;;;12.40;99.90;;;15.43;56.41;97267.91;4926983;29;20047;-57
2022/11/09 05:29:08;;;;;;;5.18;3.92;;;12.40;99.90;;;15.45;56.41;97257.81;4926791;29;20056;-56
2022/11/09 05:31:38;;;;;;;5.68;3.53;;;12.40;99.90;;;15.45;56.43;97264.03;4926933;29;20052;-57
2022/11/09 05:34:11;;;;;;;5.35;4.35;;;12.30;99.90;;;15.50;56.54;97268.78;4924293;29;20078;-57
2022/11/09 05:36:39;;;;;;;3.95;3.17;;;12.40;99.90;;;15.52;56.52;97269.41;4925321;29;20055;-57
2022/11/09 05:39:07;;;;;;;4.53;3.30;;;12.40;99.90;;;15.53;56.64;97277.25;4926632;29;20215;-56
2022/11/09 05:41:35;;;;;;;4.45;3.58;;;12.40;99.90;;;15.53;56.71;97269.22;4926335;29;20052;-57
2022/11/09 05:44:04;;;;;;;5.38;3.83;;;12.40;99.90;;;15.59;56.76;97270.25;4916155;29;20070;-57
2022/11/09 05:46:33;;;;;;;4.78;3.75;;;12.40;99.90;;;15.59;56.67;97256.03;4907825;29;20373;-56
2022/11/09 05:49:01;;;;;;;5.13;4.03;;;12.40;99.90;;;15.58;56.75;97267.78;4907101;29;20056;-57
2022/11/09 05:51:29;;;;;;;5.80;4.35;;;12.40;99.90;;;15.56;56.89;97262.59;4908081;29;20067;-57
2022/11/09 05:53:57;;;;;;;6.70;4.20;;;12.40;99.90;;;15.54;56.84;97268.16;4907004;29;20148;-55
2022/11/09 05:56:25;;;;;;;5.72;4.10;;;12.40;99.90;;;15.56;56.85;97255.38;4907542;29;20056;-54
2022/11/09 05:58:53;;;;;;;5.03;3.80;;;12.40;99.90;;;15.55;56.63;97256.41;4907273;29;20242;-56
2022/11/09 06:01:21;;;;;;;8.38;4.50;;;12.40;99.90;;;15.54;56.69;97262.81;4907544;29;20052;-54
2022/11/09 06:03:52;;;;;;;5.97;4.57;;;12.30;99.90;;;15.55;56.70;97266.34;4906802;29;20052;-57
2022/11/09 06:06:20;;;;;;;6.15;4.18;;;12.40;99.90;;;15.54;56.76;97272.72;4906155;29;20056;-55
2022/11/09 06:08:49;;;;;;;6.32;4.57;;;12.30;99.90;;;15.54;56.89;97278.06;4906977;29;20052;-56
2022/11/09 06:11:17;;;;;;;4.97;3.97;;;12.30;99.90;;;15.55;57.29;97279.75;4907341;29;20351;-55
2022/11/09 06:13:52;;;;;;;6.28;4.60;;;12.30;99.90;;;15.54;56.76;97286.13;4904571;29;20358;-57
2022/11/09 06:16:20;;;;;;;5.53;3.83;;;12.30;99.90;;;15.49;56.96;97299.31;4907081;29;20242;-58
2022/11/09 06:18:48;;;;;;;8.20;4.88;;;12.20;99.90;;;15.42;57.37;97299.28;4907305;29;20059;-58
2022/11/09 06:21:16;;;;;;;5.72;4.40;;;12.20;99.90;;;15.39;57.22;97298.88;4907566;29;20056;-58
2022/11/09 06:23:44;;;;;;;9.48;5.53;;;12.10;99.90;;;15.39;57.49;97299.69;4906742;29;20385;-57
2022/11/09 06:26:13;;;;;;;9.65;5.78;;;12.10;99.90;;;15.42;57.35;97301.16;4906800;29;20070;-56
2022/11/09 06:28:41;;;;;;;10.10;5.43;;;12.10;99.90;;;15.41;57.52;97289.59;4907149;29;20049;-56
2022/11/09 06:31:13;;;;;;;6.15;4.70;;;12.20;99.90;;;15.43;57.44;97284.88;4906885;29;20049;-59
2022/11/09 06:33:42;;;;;;;7.22;5.82;;;12.30;99.90;;;15.43;57.43;97284.88;4905731;29;20048;-58
2022/11/09 06:36:10;;;;;;;8.23;5.85;;;12.30;99.90;;;15.40;57.38;97295.97;4905853;29;20251;-58
2022/11/09 06:38:39;;;;;;;7.40;4.57;;;12.30;99.90;;;15.36;57.40;97295.56;4906930;29;20350;-58
2022/11/09 06:41:09;;;;;;;6.07;4.45;;;12.20;99.90;;;15.34;57.72;97296.78;4906838;29;20056;-58
2022/11/09 06:43:38;;;;;;;7.70;5.38;;;12.10;99.90;;;15.34;57.44;97312.88;4912859;29;20044;-59
2022/11/09 06:46:07;;;;;;;7.72;5.45;;;12.10;99.90;;;15.33;57.56;97325.47;4925694;29;20044;-56
2022/11/09 06:48:39;;;;;;;7.57;5.43;;;12.10;99.90;;;15.31;57.53;97342.78;4925899;29;20059;-59
2022/11/09 06:51:07;;;;;;;7.78;6.03;;;12.10;99.90;;;15.18;57.85;97362.31;4923968;29;20056;-58
2022/11/09 06:53:38;;;;;;;8.50;5.55;;;11.90;99.90;;;14.91;58.95;97414.91;4925670;29;20334;-57
2022/11/09 06:56:08;;;;;;;12.27;6.22;;;11.70;99.90;;;14.68;59.79;97417.81;4925480;29;20059;-59
2022/11/09 06:58:37;;;;;;;8.25;5.07;;;11.50;99.90;;;14.52;60.00;97409.00;4925676;29;20054;-56
2022/11/09 07:01:11;;;;;;;9.13;6.50;;;11.40;99.90;;;14.53;59.91;97402.59;4906702;29;20056;-58
2022/11/09 07:03:39;;;;;;;6.80;5.50;;;11.40;99.90;;;14.45;60.41;97399.25;4905335;29;20045;-58
2022/11/09 07:06:10;;;;;;;9.80;5.87;;;11.40;99.90;;;14.50;60.24;97394.97;4906540;29;20059;-60
2022/11/09 07:08:39;;;;;;;7.47;5.57;;;11.40;99.90;;;14.53;60.23;97401.78;4906595;29;20227;-60
2022/11/09 07:11:11;;;;;;;9.03;6.07;;;11.40;99.90;;;14.62;59.98;97400.66;4906444;29;20056;-60
2022/11/09 07:13:39;;;;;;;8.75;7.07;;;11.40;99.90;;;14.67;60.13;97395.53;4908372;29;20056;-61
2022/11/09 07:16:08;;;;;;;7.85;6.28;;;11.50;99.90;;;14.77;60.09;97389.84;4910053;29;20377;-61
2022/11/09 07:18:36;;;;;;;9.40;5.40;;;11.70;99.90;;;14.85;59.94;97388.88;4910140;29;20055;-60
2022/11/09 07:21:05;;;;;;;6.93;5.57;;;11.70;99.90;;;14.90;59.80;97387.28;4910049;29;20059;-60
2022/11/09 07:23:38;;;;;;;7.05;5.70;;;11.80;99.90;;;15.00;59.65;97391.47;4909634;29;20048;-60
2022/11/09 07:26:06;;;;;;;7.53;5.97;;;11.80;99.90;;;15.03;59.52;97397.28;4908984;29;20048;-60
2022/11/09 07:28:35;;;;;;;7.68;5.47;;;11.90;99.90;;;15.04;59.67;97387.38;4909962;29;20057;-60
2022/11/09 07:31:03;;;;;;;7.22;5.25;;;11.90;99.90;;;15.08;59.47;97385.94;4910160;29;20052;-61
2022/11/09 07:33:32;;;;;;;7.65;6.00;;;11.90;99.90;;;15.11;59.52;97391.75;4908422;29;20250;-61
2022/11/09 07:36:03;;;;;;;8.38;5.95;;;12.00;99.90;;;15.16;59.44;97392.00;4910065;29;20052;-60
2022/11/09 07:38:31;;;;;;;8.10;6.30;;;12.00;99.90;;;15.18;59.44;97389.13;4909616;29;20051;-60
2022/11/09 07:41:00;;;;;;;8.57;6.63;;;12.00;99.90;;;15.21;59.31;97388.72;4909975;29;20049;-59
2022/11/09 07:43:29;;;;;;;6.82;4.88;;;12.00;99.90;;;15.24;59.45;97392.88;4914643;29;20048;-61
2022/11/09 07:46:04;;;;;;;8.10;5.20;;;12.10;99.90;;;15.24;59.40;97393.69;4926380;29;20350;-61
2022/11/09 07:48:32;;;;;;;7.13;5.65;;;12.10;99.90;;;15.25;59.27;97399.88;4943069;29;20259;-61
2022/11/09 07:51:01;;;;;;;12.07;5.53;;;12.20;99.90;;;15.25;59.34;97397.19;4927496;29;20048;-60
2022/11/09 07:53:30;;;;;;;8.05;5.82;;;12.20;99.90;;;15.28;59.28;97394.97;4928223;29;20048;-60
2022/11/09 07:56:02;;;;;;;5.50;4.53;;;12.20;99.90;;;15.32;59.22;97390.03;4928164;29;20078;-60
2022/11/09 07:58:31;;;;;;;9.05;5.85;;;12.20;99.90;;;15.34;59.11;97387.97;4927301;29;20048;-60
2022/11/09 08:00:59;;;;;;;7.85;5.80;;;12.20;99.90;;;15.33;59.23;97381.78;4928150;29;20083;-60
2022/11/09 08:03:27;;;;;;;6.53;5.07;;;12.20;99.90;;;15.35;59.11;97385.09;4928220;29;20074;-60
2022/11/09 08:05:57;;;;;;;6.15;4.97;;;12.20;99.90;;;15.34;59.27;97391.47;4913550;29;20049;-60
2022/11/09 08:08:25;;;;;;;11.38;4.95;;;12.20;99.90;;;15.36;59.34;97396.66;4909309;29;20075;-59
2022/11/09 08:10:57;;;;;;;6.88;5.20;;;12.20;99.90;;;15.36;59.47;97392.09;4908489;29;20251;-58
2022/11/09 08:13:26;;;;;;;9.48;4.70;;;12.20;99.90;;;15.37;59.42;97384.88;4908711;29;20064;-59
2022/11/09 08:15:54;;;;;;;7.32;4.47;;;12.30;99.90;;;15.36;59.39;97365.28;4907542;29;20266;-59
2022/11/09 08:18:22;;;;;;;5.55;3.72;;;12.30;99.90;;;15.41;59.42;97377.28;4909004;29;20052;-62
2022/11/09 08:20:51;;;;;;;5.05;3.92;;;12.50;99.90;;;15.42;59.28;97370.91;4908988;29;20051;-62
2022/11/09 08:23:20;;;;;;;6.68;4.70;;;12.50;99.90;;;15.40;59.43;97372.94;4906843;29;20343;-63
2022/11/09 08:25:49;;;;;;;7.10;4.43;;;12.50;99.90;;;15.35;59.41;97374.38;4909080;29;20063;-63
2022/11/09 08:28:18;;;;;;;6.57;4.18;;;12.60;99.90;;;15.35;59.55;97374.38;4907610;29;20067;-63
2022/11/09 08:30:58;;;;;;;6.88;3.92;;;12.60;99.90;;;15.38;59.51;97380.38;4908526;29;20054;-63
2022/11/09 08:33:30;;;;;;;5.28;3.50;;;12.60;99.90;;;15.40;59.64;97383.69;4908745;29;20048;-59
2022/11/09 08:35:58;;;;;;;5.13;3.38;;;12.60;99.90;;;15.47;59.81;97379.16;4907791;29;20059;-57
2022/11/09 08:38:26;;;;;;;4.35;2.95;;;12.70;99.90;;;15.51;59.62;97381.25;4908353;29;20351;-59
2022/11/09 08:40:59;;;;;;;4.68;2.67;;;12.70;99.90;;;15.48;59.73;97380.81;4908862;29;20239;-58
2022/11/09 08:43:29;;;;;;;3.88;3.33;;;12.70;99.90;;;15.53;59.72;97373.03;4908363;29;20062;-58
2022/11/09 08:45:57;;;;;;;3.58;2.75;;;12.70;99.90;;;15.61;59.48;97372.03;4907670;29;20051;-58
2022/11/09 08:48:30;;;;;;;3.90;2.75;;;12.80;99.90;;;15.59;59.56;97382.94;4908356;29;20376;-58
2022/11/09 08:51:04;;;;;;;3.95;2.80;;;12.80;99.90;;;15.61;59.54;97388.13;4908791;29;20242;-57
2022/11/09 08:53:35;;;;;;;3.70;2.45;;;12.80;99.90;;;15.65;59.60;97378.66;4907955;29;20059;-59
2022/11/09 08:56:07;;;;;;;5.40;3.20;;;12.80;99.90;;;15.71;59.48;97381.34;4908440;29;20247;-58
2022/11/09 08:58:37;;;;;;;5.05;3.50;;;12.90;99.90;;;15.71;59.47;97384.03;4908112;29;20055;-59
2022/11/09 09:01:08;;;;;;;3.78;2.70;;;12.90;99.90;;;15.71;59.62;97380.53;4906448;29;20048;-56
2022/11/09 09:03:45;;;;;;;3.67;3.05;;;12.90;99.90;;;15.68;59.72;97380.91;4915724;29;20052;-59
2022/11/09 09:06:14;;;;;;;4.00;3.33;;;12.90;99.90;;;15.71;59.92;97383.19;4900703;29;20072;-59
2022/11/09 09:08:43;;;;;;;6.22;3.22;;;12.90;99.90;;;15.79;59.82;97382.25;4899339;29;20056;-58
2022/11/09 09:11:12;;;;;;;6.13;2.88;;;12.90;99.90;;;15.82;59.73;97385.34;4902417;29;20059;-59
2022/11/09 09:13:40;;;;;;;4.50;2.92;;;13.00;99.90;;;15.85;59.50;97387.63;4902725;29;20052;-59
2022/11/09 09:16:14;;;;;;;5.25;2.90;;;13.00;99.90;;;15.89;59.60;97393.41;4900415;29;20056;-59
2022/11/09 09:18:42;;;;;;;5.03;3.05;;;13.10;99.90;;;15.94;59.16;97386.41;4902684;29;20277;-58
2022/11/09 09:21:10;;;;;;;5.88;2.80;;;13.10;99.90;;;16.01;59.41;97397.16;4903088;29;20346;-59
2022/11/09 09:23:38;;;;;;;3.63;2.40;;;13.10;99.90;;;16.06;59.08;97392.03;4902215;29;20053;-58
2022/11/09 09:26:07;;;;;;;2.88;2.17;;;13.20;99.90;;;16.13;59.23;97398.25;4901345;29;20071;-57
2022/11/09 09:28:35;;;;;;;3.08;2.20;;;13.20;99.90;;;16.17;59.03;97405.88;4903229;29;20060;-58
2022/11/09 09:31:03;;;;;;;4.30;2.30;;;13.20;99.90;;;16.20;59.09;97406.31;4907965;29;20056;-58
2022/11/09 09:33:32;;;;;;;3.25;2.22;;;13.30;99.90;;;16.26;58.91;97412.72;4907310;29;20048;-59
2022/11/09 09:36:00;;;;;;;3.47;1.98;;;13.40;99.90;;;16.27;58.87;97412.53;4907288;29;20056;-58
2022/11/09 09:38:29;;;;;;;3.03;1.67;;;13.40;99.90;;;16.30;58.89;97413.97;4922019;29;20053;-60
2022/11/09 09:41:05;;;;;;;3.50;2.40;;;13.40;99.90;;;16.31;58.65;97421.84;4907684;29;20072;-57
2022/11/09 09:43:40;;;;;;;2.58;1.88;;;13.50;99.90;;;16.38;59.03;97416.50;4906364;29;20343;-58
2022/11/09 09:46:41;;;;;;;3.30;1.92;;;13.50;99.90;;;16.40;58.67;97425.19;4907717;29;20055;-59
2022/11/09 09:49:25;;;;;;;3.92;1.92;;;13.50;99.90;;;16.42;58.39;97430.31;4907957;29;20251;-59
2022/11/09 09:52:05;;;;;;;;;;;13.50;99.90;;;16.50;58.13;97422.09;4906380;29;20259;-60
2022/11/09 09:54:47;;;;;;;2.20;1.63;;;13.50;99.90;;;16.48;58.23;97427.66;4904693;29;19919;-59
2022/11/09 09:57:22;;;;;;;2.22;1.42;;;13.50;99.90;;;16.44;58.54;97422.88;4907462;29;20063;-59
2022/11/09 09:59:53;;;;;;;2.55;1.80;;;13.50;99.90;;;16.40;58.79;97421.63;4907305;29;20067;-59
2022/11/09 10:02:33;;;;;;;1.75;1.40;;;13.50;99.90;;;16.45;58.57;97429.94;4903640;29;20052;-59
2022/11/09 10:05:13;;;;;;;1.77;1.20;;;13.60;99.90;;;16.49;58.30;97433.88;4906132;29;20049;-58
2022/11/09 10:08:12;;;;;;;2.63;1.45;;;13.60;99.90;;;16.45;58.55;97425.38;4906311;29;20054;-59
2022/11/09 10:10:52;;;;;;;3.22;1.77;;;13.70;99.90;;;16.56;58.51;97425.81;4911668;29;20052;-59
2022/11/09 10:14:01;;;;;;;2.45;1.63;;;13.70;99.90;;;16.53;58.44;97414.44;4924892;29;20055;-59
2022/11/09 10:16:56;;;;;;;4.55;1.83;;;13.70;99.90;;;16.62;58.35;97414.25;4912557;29;20063;-58
2022/11/09 10:20:12;;;;;;;3.17;2.28;;;13.80;99.90;;;16.63;58.55;97419.41;4901217;29;20041;-60
2022/11/09 10:23:24;;;;;;;2.40;1.38;;;13.80;99.90;;;16.71;58.48;97411.16;4906346;29;20053;-59
2022/11/09 10:26:10;;;;;;;3.20;1.95;;;13.90;99.90;;;16.77;58.16;97417.56;4904507;29;20044;-59
2022/11/09 10:28:47;;;;;;;4.00;2.08;;;13.90;99.90;;;16.80;58.20;97414.47;4904928;29;20368;-60
2022/11/09 10:31:40;;;;;;;3.80;2.50;;;14.00;99.90;;;16.86;58.29;97410.97;4904763;29;20056;-60
2022/11/09 10:34:35;;;;;;;3.50;1.55;;;14.00;99.90;;;16.92;58.27;97415.53;4903094;29;20075;-59
2022/11/09 10:37:35;;;;;;;4.05;1.85;;;14.10;99.90;;;16.99;58.13;97403.94;4911121;29;20052;-60
2022/11/09 10:40:44;;;;;;;3.72;2.00;;;14.20;99.90;;;17.05;58.15;97393.19;4931653;29;20052;-59